Time;durP1;ratioP1;P1;durP2;ratioP2;P2;SDS_P1;SDS_P2;PMS_P1;PMS_P2;Temp;Humidity;BMP_temperature;BMP_pressure;BME280_temperature;BME280_humidity;BME280_pressure;Samples;Min_cycle;Max_cycle;Signal;HPM_P1;HPM_P2
2021/11/05 00:00:59;;;;;;;2.60;2.20;;;;;;;6.70;79.82;98625.43;112538;1176;61138;-75
2021/11/05 00:03:27;;;;;;;3.30;2.50;;;;;;;6.76;79.79;98633.04;112494;1193;67029;-75
2021/11/05 00:05:55;;;;;;;3.20;2.70;;;;;;;6.81;79.78;98635.75;112491;1193;61035;-77
2021/11/05 00:08:26;;;;;;;2.80;2.50;;;;;;;6.85;79.65;98636.05;112471;1192;64311;-74
2021/11/05 00:10:53;;;;;;;6.90;4.10;;;;;;;6.90;79.59;98633.10;112318;1192;61097;-75
2021/11/05 00:13:19;;;;;;;7.30;3.30;;;;;;;6.93;79.53;98622.72;112486;1192;61020;-75
2021/11/05 00:15:46;;;;;;;4.20;2.80;;;;;;;6.94;79.39;98619.48;112529;1193;66007;-75
2021/11/05 00:18:12;;;;;;;3.20;2.50;;;;;;;6.93;79.31;98612.64;112505;1193;61053;-75
2021/11/05 00:20:39;;;;;;;4.00;2.70;;;;;;;6.90;79.29;98612.13;112489;1193;63927;-74
2021/11/05 00:23:06;;;;;;;8.30;2.90;;;;;;;6.86;79.16;98612.53;112303;1192;61045;-75
2021/11/05 00:25:32;;;;;;;3.40;2.40;;;;;;;6.82;79.20;98614.69;112518;1191;60976;-77
2021/11/05 00:28:02;;;;;;;5.00;2.50;;;;;;;6.78;79.18;98617.55;112501;1191;64686;-75
2021/11/05 00:30:29;;;;;;;4.10;2.70;;;;;;;6.73;79.18;98627.90;112488;1193;60934;-77
2021/11/05 00:32:55;;;;;;;3.10;2.80;;;;;;;6.69;79.10;98633.95;112515;1192;64182;-74
2021/11/05 00:35:22;;;;;;;5.90;3.00;;;;;;;6.66;79.12;98645.61;112538;1192;60946;-77
2021/11/05 00:38:06;;;;;;;5.00;2.30;;;;;;;6.64;79.22;98651.41;112516;1193;60969;-75
2021/11/05 00:40:50;;;;;;;2.70;2.30;;;;;;;6.63;79.20;98661.34;112513;1192;67778;-77
2021/11/05 00:43:17;;;;;;;3.60;2.90;;;;;;;6.64;79.06;98668.37;112503;1193;61079;-76
2021/11/05 00:45:44;;;;;;;3.70;2.80;;;;;;;6.64;79.06;98672.76;112479;1191;63988;-75
2021/11/05 00:48:11;;;;;;;3.90;2.40;;;;;;;6.63;79.01;98672.66;112335;1192;61125;-74
2021/11/05 00:50:37;;;;;;;3.90;3.10;;;;;;;6.62;79.03;98681.17;112493;1193;60968;-76
2021/11/05 00:53:04;;;;;;;4.50;2.80;;;;;;;6.59;79.08;98687.11;112381;1192;66000;-75
2021/11/05 00:55:31;;;;;;;4.80;3.40;;;;;;;6.58;79.13;98691.96;112377;1193;61151;-77
2021/11/05 00:57:57;;;;;;;3.60;3.10;;;;;;;6.56;79.09;98691.52;112324;1192;62771;-76
2021/11/05 01:00:24;;;;;;;4.20;2.80;;;;;;;6.55;79.12;98692.80;112501;1193;61100;-76
2021/11/05 01:02:50;;;;;;;3.10;2.20;;;;;;;6.54;79.10;98692.55;112533;1192;61712;-75
2021/11/05 01:05:17;;;;;;;2.90;2.40;;;;;;;6.51;79.09;98688.27;112434;1193;66049;-75
2021/11/05 01:07:44;;;;;;;3.80;2.10;;;;;;;6.49;79.14;98684.89;112467;1193;60968;-76
2021/11/05 01:10:11;;;;;;;3.90;2.50;;;;;;;6.45;79.10;98684.58;112477;1193;64082;-75
2021/11/05 01:12:38;;;;;;;2.60;2.30;;;;;;;6.39;79.09;98682.59;112303;1191;61026;-75
2021/11/05 01:15:07;;;;;;;6.40;2.90;;;;;;;6.33;79.08;98683.94;112461;1193;61500;-75
2021/11/05 01:17:35;;;;;;;4.80;2.40;;;;;;;6.28;79.19;98683.89;112489;1192;64845;-75
2021/11/05 01:20:04;;;;;;;4.20;2.20;;;;;;;6.22;79.26;98690.41;112558;1194;61488;-75
2021/11/05 01:22:30;;;;;;;3.10;2.30;;;;;;;6.15;79.32;98689.92;112541;1193;63978;-74
2021/11/05 01:24:57;;;;;;;2.90;2.50;;;;;;;6.09;79.35;98697.08;112533;1193;60966;-76
2021/11/05 01:27:23;;;;;;;3.60;2.40;;;;;;;6.03;79.42;98698.99;112564;1193;61026;-75
2021/11/05 01:29:52;;;;;;;4.30;2.70;;;;;;;5.99;79.50;98704.71;112543;1192;64670;-74
2021/11/05 01:32:19;;;;;;;3.40;2.30;;;;;;;5.93;79.53;98701.81;112513;1192;60917;-74
2021/11/05 01:34:45;;;;;;;3.10;2.00;;;;;;;5.90;79.63;98701.06;112473;1193;64025;-77
2021/11/05 01:37:12;;;;;;;3.30;2.40;;;;;;;5.89;79.75;98697.23;112533;1192;61049;-75
2021/11/05 01:39:39;;;;;;;3.90;2.40;;;;;;;5.87;79.74;98689.78;112516;1193;60969;-76
2021/11/05 01:42:06;;;;;;;4.50;3.00;;;;;;;5.84;79.75;98688.85;112495;1193;64667;-77
2021/11/05 01:44:33;;;;;;;3.70;2.70;;;;;;;5.80;79.81;98689.77;112495;1192;61437;-77
2021/11/05 01:47:00;;;;;;;4.60;2.90;;;;;;;5.75;79.82;98694.80;112532;1193;64872;-74
2021/11/05 01:49:27;;;;;;;3.00;2.70;;;;;;;5.70;79.90;98701.03;112492;1192;60959;-75
2021/11/05 01:51:56;;;;;;;3.10;2.50;;;;;;;5.66;80.08;98703.89;112535;1192;61007;-74
2021/11/05 01:54:25;;;;;;;3.60;3.20;;;;;;;5.66;80.13;98706.54;112524;1192;66147;-75
2021/11/05 01:56:52;;;;;;;3.60;2.90;;;;;;;5.65;80.14;98711.18;112425;1192;61070;-75
2021/11/05 01:59:27;;;;;;;4.50;3.10;;;;;;;5.61;80.17;98712.45;112498;1193;63823;-77
2021/11/05 02:01:56;;;;;;;3.00;2.70;;;;;;;5.56;80.28;98714.45;112400;1192;61045;-75
2021/11/05 02:04:23;;;;;;;2.90;2.70;;;;;;;5.53;80.37;98713.91;112606;1192;61065;-74
2021/11/05 02:06:51;;;;;;;3.50;3.20;;;;;;;5.48;80.42;98715.04;112511;1192;64630;-74
2021/11/05 02:09:21;;;;;;;4.00;3.20;;;;;;;5.42;80.50;98716.41;112538;1193;61058;-75
2021/11/05 02:11:50;;;;;;;4.80;4.10;;;;;;;5.36;80.63;98720.39;112475;1192;62766;-74
2021/11/05 02:14:21;;;;;;;5.00;4.30;;;;;;;5.31;80.73;98720.10;112503;1192;61023;-75
2021/11/05 02:16:51;;;;;;;4.50;4.10;;;;;;;5.27;80.79;98718.90;112601;1193;61009;-75
2021/11/05 02:19:21;;;;;;;4.90;3.70;;;;;;;5.24;80.83;98716.08;112634;1192;64689;-74
2021/11/05 02:21:49;;;;;;;;;;;;;;;5.20;81.01;98715.36;112446;1193;60982;-74
2021/11/05 02:24:17;;;;;;;4.70;3.70;;;;;;;5.15;81.09;98719.87;112552;1193;64965;-74
2021/11/05 02:26:45;;;;;;;4.30;3.90;;;;;;;5.11;81.18;98718.30;112547;1193;61058;-74
2021/11/05 02:29:13;;;;;;;3.60;3.30;;;;;;;5.10;81.30;98718.71;112558;1192;60943;-74
2021/11/05 02:31:41;;;;;;;3.80;3.40;;;;;;;5.10;81.37;98715.68;112503;1191;64775;-74
2021/11/05 02:34:08;;;;;;;3.70;3.40;;;;;;;5.12;81.37;98715.80;112559;1193;61024;-75
2021/11/05 02:36:34;;;;;;;3.40;3.00;;;;;;;5.10;81.39;98721.00;112371;1193;62676;-75
2021/11/05 02:39:07;;;;;;;4.20;3.10;;;;;;;5.06;81.42;98724.70;112515;1192;60969;-75
2021/11/05 02:41:53;;;;;;;4.00;2.80;;;;;;;5.04;81.48;98729.02;112525;1191;61029;-75
2021/11/05 02:44:21;;;;;;;3.50;3.00;;;;;;;5.03;81.57;98731.01;112523;1192;66781;-75
2021/11/05 02:46:49;;;;;;;3.20;2.90;;;;;;;5.01;81.62;98738.33;112518;1193;60946;-75
2021/11/05 02:49:16;;;;;;;3.80;3.50;;;;;;;4.98;81.59;98743.75;112546;1177;64008;-73
2021/11/05 02:51:48;;;;;;;4.50;4.10;;;;;;;4.94;81.61;98743.09;112523;1192;61122;-76
2021/11/05 02:54:16;;;;;;;4.40;4.00;;;;;;;4.87;81.66;98739.86;112551;1193;61020;-76
2021/11/05 02:56:43;;;;;;;6.10;5.00;;;;;;;4.83;81.81;98741.83;112495;1191;66121;-74
2021/11/05 02:59:09;;;;;;;7.20;6.50;;;;;;;4.81;81.92;98742.12;112526;1193;61071;-76
2021/11/05 03:01:37;;;;;;;6.30;5.60;;;;;;;4.78;82.04;98744.33;112512;1192;64062;-75
2021/11/05 03:04:06;;;;;;;4.90;4.40;;;;;;;4.77;82.12;98747.20;112367;1193;61080;-74
2021/11/05 03:06:39;;;;;;;4.00;3.60;;;;;;;4.76;82.15;98747.80;112567;1192;61058;-74
2021/11/05 03:09:10;;;;;;;4.10;3.20;;;;;;;4.74;82.26;98748.77;112318;1192;65986;-74
2021/11/05 03:11:38;;;;;;;4.00;3.70;;;;;;;4.75;82.33;98745.73;112500;1192;61036;-75
2021/11/05 03:14:05;;;;;;;3.10;2.80;;;;;;;4.76;82.37;98744.80;112508;1192;64028;-75
2021/11/05 03:16:33;;;;;;;3.70;3.30;;;;;;;4.79;82.39;98750.31;112496;1193;61049;-74
2021/11/05 03:19:01;;;;;;;2.80;2.50;;;;;;;4.80;82.42;98757.79;112367;1187;61030;-74
2021/11/05 03:21:27;;;;;;;3.70;2.90;;;;;;;4.82;82.46;98761.76;112551;1183;66273;-75
2021/11/05 03:23:54;;;;;;;3.30;3.00;;;;;;;4.84;82.44;98764.66;112518;1193;60972;-74
2021/11/05 03:26:21;;;;;;;5.00;3.40;;;;;;;4.85;82.45;98768.50;112513;1192;65022;-74
2021/11/05 03:28:48;;;;;;;4.40;3.40;;;;;;;4.86;82.41;98772.86;112501;1192;61006;-75
2021/11/05 03:31:14;;;;;;;5.50;3.50;;;;;;;4.87;82.40;98775.64;112551;1187;61138;-75
2021/11/05 03:33:41;;;;;;;4.20;3.50;;;;;;;4.85;82.39;98782.57;112495;1193;64643;-74
2021/11/05 03:36:09;;;;;;;8.70;3.50;;;;;;;4.83;82.40;98791.30;112505;1192;61020;-74
2021/11/05 03:38:35;;;;;;;4.20;3.70;;;;;;;4.79;82.42;98800.08;112344;1192;64022;-74
2021/11/05 03:41:02;;;;;;;4.10;3.70;;;;;;;4.76;82.43;98798.14;112503;1192;61039;-76
2021/11/05 03:43:29;;;;;;;3.80;3.40;;;;;;;4.72;82.45;98795.31;112530;1192;61035;-75
2021/11/05 03:45:56;;;;;;;6.80;3.20;;;;;;;4.69;82.53;98798.31;112556;1193;65702;-74
2021/11/05 03:48:23;;;;;;;4.00;3.40;;;;;;;4.65;82.62;98800.93;112523;1193;60979;-76
2021/11/05 03:50:49;;;;;;;3.30;3.00;;;;;;;4.60;82.63;98798.33;112523;1193;63978;-77
2021/11/05 03:53:16;;;;;;;4.30;3.70;;;;;;;4.55;82.69;98803.48;112552;1192;61488;-77
2021/11/05 03:55:42;;;;;;;4.60;4.00;;;;;;;4.55;82.95;98807.02;112564;1192;61054;-78
2021/11/05 03:58:09;;;;;;;5.10;3.50;;;;;;;4.56;82.99;98810.47;112466;1193;66158;-76
2021/11/05 04:00:36;;;;;;;3.60;3.10;;;;;;;4.57;83.03;98813.77;112561;1193;60968;-75
2021/11/05 04:03:02;;;;;;;4.80;4.10;;;;;;;4.58;83.03;98822.02;112395;1192;64014;-77
2021/11/05 04:05:29;;;;;;;3.70;3.40;;;;;;;4.57;82.94;98823.08;112556;1193;60966;-78
2021/11/05 04:07:55;;;;;;;3.60;3.30;;;;;;;4.57;82.96;98826.79;112479;1193;61054;-77
2021/11/05 04:10:22;;;;;;;3.80;3.40;;;;;;;4.56;82.94;98829.29;112375;1192;64672;-75
2021/11/05 04:12:48;;;;;;;3.80;3.50;;;;;;;4.53;82.96;98830.33;112551;1193;60976;-75
2021/11/05 04:15:15;;;;;;;4.10;3.70;;;;;;;4.51;83.05;98834.48;112396;1192;62656;-75
2021/11/05 04:17:41;;;;;;;4.10;3.70;;;;;;;4.49;83.12;98838.94;112570;1193;61052;-75
2021/11/05 04:20:10;;;;;;;3.80;3.50;;;;;;;4.49;83.13;98842.33;112504;1191;60972;-75
2021/11/05 04:22:39;;;;;;;5.10;3.80;;;;;;;4.48;83.17;98840.22;112529;1192;66046;-74
2021/11/05 04:25:06;;;;;;;3.80;3.40;;;;;;;4.49;83.18;98839.84;112524;1192;60982;-75
2021/11/05 04:27:33;;;;;;;4.10;3.80;;;;;;;4.50;83.16;98844.52;112368;1192;64168;-75
2021/11/05 04:30:00;;;;;;;4.60;4.00;;;;;;;4.50;83.16;98844.88;112475;1193;61035;-74
2021/11/05 04:32:26;;;;;;;4.00;3.60;;;;;;;4.53;83.24;98847.04;112557;1192;61026;-74
2021/11/05 04:34:53;;;;;;;3.30;3.00;;;;;;;4.58;83.26;98845.55;112512;1192;66934;-74
2021/11/05 04:37:20;;;;;;;3.90;3.50;;;;;;;4.62;83.11;98851.73;112541;1192;60943;-75
2021/11/05 04:39:47;;;;;;;3.90;3.40;;;;;;;4.64;83.07;98853.75;112493;1192;64994;-75
2021/11/05 04:42:14;;;;;;;4.20;3.80;;;;;;;4.66;83.04;98856.48;112517;1193;61049;-74
2021/11/05 04:44:40;;;;;;;4.20;3.60;;;;;;;4.68;82.97;98859.73;112371;1192;60981;-74
2021/11/05 04:47:07;;;;;;;4.20;3.80;;;;;;;4.69;82.99;98864.09;112526;1193;64504;-76
2021/11/05 04:49:34;;;;;;;5.30;4.30;;;;;;;4.70;82.89;98863.33;112507;1192;61065;-75
2021/11/05 04:52:00;;;;;;;7.30;4.60;;;;;;;4.72;82.90;98865.36;112495;1192;64127;-76
2021/11/05 04:54:27;;;;;;;5.10;4.60;;;;;;;4.73;82.85;98864.77;112497;1192;61009;-75
2021/11/05 04:56:53;;;;;;;8.00;5.40;;;;;;;4.74;82.77;98866.16;112479;1193;61032;-75
2021/11/05 04:59:20;;;;;;;7.20;4.70;;;;;;;4.72;82.72;98867.14;112525;1192;64638;-75
2021/11/05 05:01:47;;;;;;;5.90;4.30;;;;;;;4.71;82.70;98869.84;112552;1193;61004;-74
2021/11/05 05:04:14;;;;;;;5.90;4.20;;;;;;;4.68;82.65;98873.83;112516;1192;71857;-75
2021/11/05 05:06:41;;;;;;;4.00;3.60;;;;;;;4.66;82.63;98880.45;112518;1192;61055;-75
2021/11/05 05:09:07;;;;;;;5.10;3.80;;;;;;;4.62;82.57;98879.70;112492;1193;61443;-74
2021/11/05 05:11:34;;;;;;;6.30;4.80;;;;;;;4.61;82.63;98879.08;112510;1193;66030;-75
2021/11/05 05:14:01;;;;;;;6.60;5.20;;;;;;;4.58;82.63;98884.98;112489;1192;61049;-75
2021/11/05 05:16:27;;;;;;;7.10;4.90;;;;;;;4.54;82.64;98890.28;112511;1192;63979;-74
2021/11/05 05:18:54;;;;;;;7.40;4.50;;;;;;;4.51;82.69;98892.86;112467;1193;60943;-74
2021/11/05 05:21:20;;;;;;;6.10;5.40;;;;;;;4.50;82.76;98891.86;112393;1193;61128;-75
2021/11/05 05:23:47;;;;;;;5.80;5.00;;;;;;;4.51;82.80;98896.77;112512;1193;66013;-76
2021/11/05 05:26:14;;;;;;;6.00;4.50;;;;;;;4.52;82.85;98897.22;112391;1193;61011;-76
2021/11/05 05:28:40;;;;;;;7.00;4.50;;;;;;;4.54;82.85;98901.37;112528;1192;62625;-74
2021/11/05 05:31:07;;;;;;;7.00;4.50;;;;;;;4.55;82.83;98903.42;112562;1193;61026;-76
2021/11/05 05:33:36;;;;;;;7.90;5.50;;;;;;;4.55;82.77;98906.05;112519;1193;61039;-78
2021/11/05 05:36:04;;;;;;;7.60;5.40;;;;;;;4.55;82.76;98909.92;112600;1193;66676;-75
2021/11/05 05:38:31;;;;;;;5.90;4.70;;;;;;;4.54;82.80;98912.80;112559;1193;61154;-75
2021/11/05 05:40:58;;;;;;;7.30;5.60;;;;;;;4.52;82.82;98914.99;112372;1192;64101;-76
2021/11/05 05:43:25;;;;;;;8.70;5.60;;;;;;;4.54;82.90;98916.86;112503;1193;61054;-75
2021/11/05 05:45:53;;;;;;;6.50;5.10;;;;;;;4.56;82.92;98910.43;112529;1192;61016;-76
2021/11/05 05:48:21;;;;;;;6.70;4.70;;;;;;;4.58;82.83;98911.04;112523;1192;65693;-76
2021/11/05 05:50:48;;;;;;;6.90;4.70;;;;;;;4.65;82.77;98916.19;112488;1192;61461;-77
2021/11/05 05:53:15;;;;;;;4.70;3.60;;;;;;;4.72;82.62;98922.05;112513;1193;64249;-76
2021/11/05 05:55:43;;;;;;;6.50;5.00;;;;;;;4.75;82.51;98927.35;112574;1177;61058;-76
2021/11/05 05:58:11;;;;;;;6.90;5.60;;;;;;;4.78;82.44;98929.34;112528;1192;61013;-76
2021/11/05 06:00:38;;;;;;;8.70;5.40;;;;;;;4.81;82.38;98934.15;112530;1192;65980;-76
2021/11/05 06:03:04;;;;;;;7.00;6.10;;;;;;;4.84;82.33;98943.86;112507;1192;61020;-77
2021/11/05 06:05:32;;;;;;;8.20;5.60;;;;;;;4.89;82.27;98953.52;112514;1192;64024;-76
2021/11/05 06:07:58;;;;;;;10.70;5.70;;;;;;;4.93;82.18;98957.20;112501;1192;61007;-75
2021/11/05 06:10:25;;;;;;;7.40;5.20;;;;;;;4.95;82.11;98961.48;112531;1192;61074;-75
2021/11/05 06:12:52;;;;;;;9.70;6.30;;;;;;;4.96;82.03;98961.27;112525;1193;66243;-75
2021/11/05 06:15:18;;;;;;;11.50;6.60;;;;;;;4.96;81.98;98955.14;112551;1193;61119;-77
2021/11/05 06:17:45;;;;;;;9.50;6.10;;;;;;;4.96;82.00;98946.70;112579;1193;65001;-77
2021/11/05 06:20:12;;;;;;;10.20;6.70;;;;;;;4.98;81.98;98945.71;112526;1192;60972;-74
2021/11/05 06:22:38;;;;;;;9.30;5.90;;;;;;;5.01;81.95;98948.02;112545;1193;61071;-77
2021/11/05 06:25:05;;;;;;;7.70;5.80;;;;;;;5.07;81.86;98951.99;112520;1192;64680;-75
2021/11/05 06:27:32;;;;;;;9.10;6.90;;;;;;;5.12;81.80;98955.83;112405;1192;61046;-75
2021/11/05 06:29:59;;;;;;;8.00;6.20;;;;;;;5.18;81.74;98963.48;112511;1193;64034;-75
2021/11/05 06:32:25;;;;;;;9.60;6.10;;;;;;;5.23;81.67;98964.81;112470;1193;60969;-76
2021/11/05 06:34:52;;;;;;;8.70;6.30;;;;;;;5.28;81.55;98966.17;112522;1184;60972;-76
2021/11/05 06:37:19;;;;;;;13.40;8.50;;;;;;;5.34;81.47;98966.08;112560;1192;65057;-76
2021/11/05 06:39:46;;;;;;;18.60;10.40;;;;;;;5.39;81.50;98963.02;112549;1193;60953;-74
2021/11/05 06:42:14;;;;;;;16.40;10.10;;;;;;;5.43;81.43;98967.95;112511;1192;62723;-75
2021/11/05 06:44:41;;;;;;;15.90;9.90;;;;;;;5.48;81.40;98972.63;112500;1193;60972;-76
2021/11/05 06:47:08;;;;;;;11.50;7.90;;;;;;;5.54;81.39;98981.90;112520;1193;61144;-74
2021/11/05 06:49:34;;;;;;;10.80;6.70;;;;;;;5.59;81.27;98986.05;112532;1193;65006;-74
2021/11/05 06:52:02;;;;;;;10.30;6.90;;;;;;;5.65;81.23;98989.49;112479;1193;61401;-77
2021/11/05 06:54:28;;;;;;;9.80;6.90;;;;;;;5.69;81.07;98989.27;112557;1193;62614;-78
2021/11/05 06:56:55;;;;;;;8.20;6.50;;;;;;;5.77;80.96;98990.52;112532;1192;61059;-78
2021/11/05 06:59:22;;;;;;;8.60;6.90;;;;;;;5.84;80.84;98994.59;112512;1192;61014;-76
2021/11/05 07:01:48;;;;;;;9.20;6.10;;;;;;;5.89;80.76;98995.92;112505;1192;64648;-76
2021/11/05 07:04:15;;;;;;;8.30;6.10;;;;;;;5.95;80.65;98990.89;112527;1191;61069;-76
2021/11/05 07:06:45;;;;;;;10.40;6.70;;;;;;;6.01;80.60;98990.08;112567;1192;63988;-77
2021/11/05 07:09:16;;;;;;;8.50;5.60;;;;;;;6.08;80.50;98988.69;112531;1192;61035;-77
2021/11/05 07:11:45;;;;;;;10.50;6.40;;;;;;;6.17;80.20;98992.15;112592;1192;60943;-76
2021/11/05 07:14:13;;;;;;;11.00;6.30;;;;;;;6.24;79.94;98991.29;112489;1192;66037;-76
2021/11/05 07:16:40;;;;;;;10.60;6.90;;;;;;;6.33;79.65;98994.88;112445;1192;61071;-76
2021/11/05 07:19:07;;;;;;;8.70;6.30;;;;;;;6.44;79.70;98998.37;112420;1193;64040;-74
2021/11/05 07:21:34;;;;;;;9.00;5.30;;;;;;;6.55;79.43;98994.80;112393;1192;61056;-75
2021/11/05 07:24:02;;;;;;;7.20;5.20;;;;;;;6.66;79.14;98988.63;112423;1192;61495;-75
2021/11/05 07:26:34;;;;;;;7.10;4.90;;;;;;;6.75;78.68;98982.70;112540;1192;66001;-75
2021/11/05 07:29:03;;;;;;;6.90;5.30;;;;;;;6.87;78.36;98983.14;112463;1192;61103;-75
2021/11/05 07:31:31;;;;;;;7.70;5.40;;;;;;;7.03;78.16;98984.76;112454;1192;62639;-74
2021/11/05 07:33:59;;;;;;;7.30;4.90;;;;;;;7.22;77.87;98997.73;112463;1193;60988;-73
2021/11/05 07:36:26;;;;;;;8.70;5.00;;;;;;;7.37;77.79;99006.09;112536;1192;61003;-75
2021/11/05 07:38:53;;;;;;;6.90;5.10;;;;;;;7.50;77.28;99011.77;112550;1192;64670;-73
2021/11/05 07:41:20;;;;;;;9.00;5.00;;;;;;;7.61;77.11;99017.05;112513;1192;61063;-75
2021/11/05 07:43:48;;;;;;;7.60;5.20;;;;;;;7.69;76.94;99022.75;112473;1192;63986;-76
2021/11/05 07:46:15;;;;;;;10.40;5.70;;;;;;;7.79;76.84;99020.29;112590;1193;61087;-76
2021/11/05 07:48:42;;;;;;;8.70;5.70;;;;;;;7.87;76.15;99016.84;112482;1193;61157;-75
2021/11/05 07:51:09;;;;;;;6.20;4.90;;;;;;;7.97;76.03;99016.64;112572;1193;65690;-76
2021/11/05 07:53:36;;;;;;;8.80;5.40;;;;;;;8.08;75.79;99022.02;112533;1192;61026;-76
2021/11/05 07:56:02;;;;;;;6.10;5.10;;;;;;;8.21;75.64;99018.10;112540;1192;62632;-75
2021/11/05 07:58:29;;;;;;;6.70;5.10;;;;;;;8.35;75.52;99019.27;112454;1193;61117;-76
2021/11/05 08:00:55;;;;;;;6.30;5.10;;;;;;;8.45;75.19;99035.21;112502;1192;61055;-76
2021/11/05 08:03:22;;;;;;;4.70;4.00;;;;;;;8.55;74.86;99051.96;112521;1192;65104;-76
2021/11/05 08:05:49;;;;;;;5.80;4.30;;;;;;;8.65;74.36;99048.69;112506;1193;60946;-76
2021/11/05 08:08:16;;;;;;;5.60;4.70;;;;;;;8.73;74.20;99051.23;112470;1192;64049;-76
2021/11/05 08:10:43;;;;;;;5.00;4.50;;;;;;;8.75;73.95;99063.70;112543;1193;61045;-76
2021/11/05 08:13:11;;;;;;;5.40;3.90;;;;;;;8.75;73.57;99070.65;112176;1192;61071;-75
2021/11/05 08:15:38;;;;;;;4.60;4.00;;;;;;;8.77;73.44;99069.81;112368;1193;65689;-75
2021/11/05 08:18:04;;;;;;;4.70;4.30;;;;;;;8.82;72.69;99066.33;112514;1192;61052;-76
2021/11/05 08:20:31;;;;;;;4.70;4.20;;;;;;;8.89;73.00;99069.14;112514;1192;64020;-76
2021/11/05 08:22:57;;;;;;;6.60;4.20;;;;;;;8.93;72.44;99075.97;112441;1192;61045;-75
2021/11/05 08:25:26;;;;;;;4.10;3.70;;;;;;;8.96;72.54;99075.61;112489;1193;60979;-75
2021/11/05 08:27:54;;;;;;;5.40;4.30;;;;;;;9.00;72.42;99075.91;112520;1192;66345;-75
2021/11/05 08:30:23;;;;;;;4.60;4.20;;;;;;;9.04;72.59;99088.96;112508;1192;61062;-75
2021/11/05 08:32:53;;;;;;;4.20;3.60;;;;;;;9.07;71.45;99100.32;112524;1192;64149;-75
2021/11/05 08:35:22;;;;;;;5.80;4.20;;;;;;;9.06;71.64;99100.55;112456;1192;61020;-75
2021/11/05 08:37:50;;;;;;;4.70;4.30;;;;;;;9.12;71.62;99092.73;112501;1193;61011;-75
2021/11/05 08:40:17;;;;;;;4.00;3.50;;;;;;;9.21;71.16;99097.34;112501;1192;66043;-76
2021/11/05 08:42:45;;;;;;;7.50;3.70;;;;;;;9.26;71.24;99099.01;112524;1193;61023;-77
2021/11/05 08:45:13;;;;;;;3.50;3.20;;;;;;;9.29;70.97;99100.58;112488;1191;64019;-75
2021/11/05 08:47:41;;;;;;;4.20;3.40;;;;;;;9.31;70.88;99105.24;112390;1193;61109;-75
2021/11/05 08:50:16;;;;;;;4.20;3.80;;;;;;;9.34;70.93;99102.80;112562;1192;60959;-75
2021/11/05 08:52:43;;;;;;;4.20;3.30;;;;;;;9.36;70.78;99110.45;112529;1192;66054;-74
2021/11/05 08:55:11;;;;;;;4.10;3.80;;;;;;;9.37;70.42;99115.72;112395;1193;61033;-75
2021/11/05 08:57:38;;;;;;;4.10;3.50;;;;;;;9.34;70.16;99111.12;112533;1193;62661;-75
2021/11/05 09:00:10;;;;;;;3.70;3.40;;;;;;;9.29;70.23;99112.63;112514;1192;61062;-74
2021/11/05 09:02:37;;;;;;;4.20;3.30;;;;;;;9.25;70.30;99116.08;112525;1192;62367;-74
2021/11/05 09:05:04;;;;;;;3.70;3.00;;;;;;;9.26;70.22;99119.91;112546;1192;65631;-74
2021/11/05 09:07:31;;;;;;;3.50;3.20;;;;;;;9.34;70.02;99122.98;112489;1192;61144;-74
2021/11/05 09:09:59;;;;;;;4.10;3.30;;;;;;;9.41;70.46;99135.48;112409;1193;62964;-75
2021/11/05 09:12:27;;;;;;;4.50;4.00;;;;;;;9.43;70.08;99144.98;112484;1192;61046;-75
2021/11/05 09:14:56;;;;;;;4.50;4.10;;;;;;;9.44;70.23;99152.69;112552;1192;61024;-76
2021/11/05 09:17:22;;;;;;;4.20;3.90;;;;;;;9.53;69.62;99158.36;112503;1192;65879;-75
2021/11/05 09:19:49;;;;;;;3.60;3.40;;;;;;;9.60;69.52;99159.16;112520;1192;60982;-75
2021/11/05 09:22:16;;;;;;;3.70;3.20;;;;;;;9.68;69.52;99163.14;112534;1192;62376;-75
2021/11/05 09:24:42;;;;;;;4.20;3.80;;;;;;;9.69;69.25;99168.55;112510;1191;61027;-75
2021/11/05 09:27:11;;;;;;;4.30;3.80;;;;;;;9.64;69.31;99176.48;112468;1192;61045;-79
2021/11/05 09:29:38;;;;;;;4.30;3.90;;;;;;;9.60;69.04;99176.77;112564;1192;66007;-75
2021/11/05 09:32:05;;;;;;;4.00;3.60;;;;;;;9.55;68.93;99170.67;112485;1191;61062;-75
2021/11/05 09:34:32;;;;;;;4.40;4.00;;;;;;;9.41;68.82;99169.39;112499;1192;62637;-76
2021/11/05 09:37:00;;;;;;;3.90;3.50;;;;;;;9.26;69.48;99167.77;112523;1192;60972;-76
2021/11/05 09:39:28;;;;;;;4.00;3.70;;;;;;;9.18;69.79;99170.73;112550;1193;61001;-75
2021/11/05 09:41:55;;;;;;;5.40;3.90;;;;;;;9.14;69.90;99172.52;112513;1193;65999;-76
2021/11/05 09:44:22;;;;;;;3.80;3.30;;;;;;;9.14;69.90;99173.99;112526;1192;61030;-75
2021/11/05 09:46:49;;;;;;;4.50;3.40;;;;;;;9.14;69.92;99185.10;112521;1193;64983;-74
2021/11/05 09:49:16;;;;;;;6.30;4.30;;;;;;;9.21;70.41;99182.42;112484;1192;61068;-73
2021/11/05 09:51:43;;;;;;;8.00;4.20;;;;;;;9.18;70.28;99179.91;112409;1192;61154;-77
2021/11/05 09:54:10;;;;;;;6.70;4.50;;;;;;;9.20;70.26;99177.87;112550;1193;64645;-75
2021/11/05 09:56:38;;;;;;;5.80;5.10;;;;;;;9.27;70.33;99176.56;112568;1192;61061;-76
2021/11/05 09:59:06;;;;;;;4.70;4.00;;;;;;;9.37;70.66;99175.98;112535;1192;64351;-77
2021/11/05 10:01:33;;;;;;;5.70;4.60;;;;;;;9.46;69.96;99176.17;112500;1191;61047;-75
2021/11/05 10:04:01;;;;;;;7.70;4.70;;;;;;;9.50;69.95;99178.80;112521;1193;61430;-75
2021/11/05 10:06:27;;;;;;;4.80;4.40;;;;;;;9.53;69.24;99179.11;112504;1192;66008;-75
2021/11/05 10:08:54;;;;;;;4.90;4.00;;;;;;;9.56;69.19;99178.62;112387;1193;61109;-75
2021/11/05 10:11:32;;;;;;;4.40;3.90;;;;;;;9.61;69.62;99175.12;112383;1193;64125;-75
2021/11/05 10:14:01;;;;;;;4.60;3.70;;;;;;;9.73;70.06;99172.98;112509;1192;61027;-75
2021/11/05 10:16:30;;;;;;;4.50;4.00;;;;;;;9.85;69.87;99164.40;112520;1192;61008;-75
2021/11/05 10:19:07;;;;;;;4.30;3.90;;;;;;;9.93;69.60;99164.11;112714;1192;64667;-82
2021/11/05 10:21:43;;;;;;;4.30;3.90;;;;;;;9.96;69.10;99165.90;112676;1192;61024;-84
2021/11/05 10:24:17;;;;;;;4.00;3.60;;;;;;;9.98;68.76;99172.52;112721;1193;63748;-85
2021/11/05 10:26:45;;;;;;;4.10;3.50;;;;;;;9.96;68.25;99172.96;112678;1193;60908;-82
2021/11/05 10:29:28;;;;;;;3.90;3.50;;;;;;;9.96;68.30;99175.83;112767;1192;61020;-84
2021/11/05 10:32:07;;;;;;;3.90;3.20;;;;;;;9.87;68.10;99178.65;112750;1193;64954;-86
2021/11/05 10:34:52;;;;;;;4.60;4.20;;;;;;;9.81;68.64;99188.97;112775;1191;60974;-84
2021/11/05 10:37:32;;;;;;;4.00;3.70;;;;;;;9.72;68.45;99195.55;112656;1192;62723;-76
2021/11/05 10:40:00;;;;;;;5.20;4.30;;;;;;;9.64;68.81;99197.95;112545;1192;60982;-76
2021/11/05 10:42:34;;;;;;;5.20;4.70;;;;;;;9.56;68.74;99202.01;112618;1192;61087;-76
2021/11/05 10:45:19;;;;;;;4.50;4.10;;;;;;;9.53;68.72;99198.66;112590;1192;66053;-77
2021/11/05 10:47:52;;;;;;;4.50;4.10;;;;;;;9.65;68.67;99197.06;112524;1191;61048;-77
2021/11/05 10:50:25;;;;;;;6.20;4.90;;;;;;;9.74;68.47;99191.71;112517;1193;64994;-77
2021/11/05 10:53:07;;;;;;;11.30;9.20;;;;;;;9.82;68.50;99190.84;112565;1193;61030;-76
2021/11/05 10:55:57;;;;;;;4.90;4.50;;;;;;;9.80;68.13;99192.73;112493;1192;61381;-77
2021/11/05 10:58:27;;;;;;;4.60;4.10;;;;;;;9.74;67.80;99191.55;112521;1192;64616;-77
2021/11/05 11:00:58;;;;;;;;;;;;;;;9.73;68.23;99194.27;112571;1192;61017;-77
2021/11/05 11:03:32;;;;;;;4.00;3.60;;;;;;;9.76;68.31;99196.91;112534;1193;64044;-76
2021/11/05 11:06:04;;;;;;;3.30;3.00;;;;;;;9.87;67.81;99194.26;112507;1192;61035;-77
2021/11/05 11:08:36;;;;;;;5.70;4.90;;;;;;;9.98;67.82;99191.65;112400;1193;61026;-78
2021/11/05 11:11:15;;;;;;;5.50;4.00;;;;;;;10.10;67.85;99186.14;112533;1193;64650;-77
2021/11/05 11:13:43;;;;;;;8.90;6.10;;;;;;;10.21;68.05;99187.73;112500;1192;60950;-78
2021/11/05 11:16:22;;;;;;;11.40;7.40;;;;;;;10.31;68.07;99193.34;112360;1193;64054;-78
2021/11/05 11:19:05;;;;;;;7.80;5.80;;;;;;;10.40;67.95;99196.22;112521;1193;61160;-80
2021/11/05 11:21:38;;;;;;;5.20;4.20;;;;;;;10.45;67.79;99203.34;112657;1192;61020;-80
2021/11/05 11:24:08;;;;;;;4.40;4.00;;;;;;;10.50;67.66;99203.00;112605;1193;66989;-79
2021/11/05 11:26:37;;;;;;;6.60;4.10;;;;;;;10.54;67.72;99200.29;112661;1192;60982;-80
2021/11/05 11:29:06;;;;;;;4.50;4.10;;;;;;;10.60;67.78;99191.77;112576;1192;62618;-79
2021/11/05 11:31:34;;;;;;;5.00;3.60;;;;;;;10.62;67.73;99186.46;112579;1192;61026;-79
2021/11/05 11:34:06;;;;;;;6.60;3.60;;;;;;;10.62;66.66;99181.61;112528;1192;61013;-78
2021/11/05 11:36:46;;;;;;;6.10;3.70;;;;;;;10.56;66.42;99190.18;112543;1193;66069;-78
2021/11/05 11:39:15;;;;;;;4.10;3.70;;;;;;;10.52;66.43;99193.81;112451;1192;61007;-78